Time;durP1;ratioP1;P1;durP2;ratioP2;P2;SDS_P1;SDS_P2;PMS_P1;PMS_P2;Temp;Humidity;BMP_temperature;BMP_pressure;BME280_temperature;BME280_humidity;BME280_pressure;Samples;Min_cycle;Max_cycle;Signal;HPM_P1;HPM_P2
2022/08/13 00:00:35;;;;;;;8.50;4.70;;;;;;;24.48;72.07;100878.91;659724;1279;138275;-81
2022/08/13 00:15:47;;;;;;;11.40;6.00;;;;;;;24.24;72.87;100872.50;658521;1279;138712;-80
2022/08/13 00:30:59;;;;;;;11.90;5.80;;;;;;;24.03;73.40;100857.43;659581;1279;138558;-81
2022/08/13 00:46:03;;;;;;;13.80;5.90;;;;;;;23.83;74.03;100846.79;657998;1277;139352;-80
2022/08/13 01:01:11;;;;;;;6.00;4.60;;;;;;;23.62;74.86;100829.55;658310;1277;138394;-80
2022/08/13 01:16:28;;;;;;;7.70;4.80;;;;;;;23.36;75.54;100810.11;658124;1277;139937;-80
2022/08/13 01:31:32;;;;;;;7.90;4.30;;;;;;;23.13;77.08;100802.37;658718;1278;138512;-80
2022/08/13 02:02:03;;;;;;;9.20;4.50;;;;;;;22.69;78.65;100787.74;660117;1278;139936;-80
2022/08/13 02:17:24;;;;;;;7.10;4.50;;;;;;;22.37;79.97;100775.95;660801;1278;138809;-81
2022/08/13 02:32:49;;;;;;;5.60;4.40;;;;;;;22.11;80.96;100772.27;660795;1279;138807;-80
2022/08/13 02:47:54;;;;;;;7.60;4.40;;;;;;;21.87;81.83;100775.57;658759;1278;139962;-80
2022/08/13 03:03:00;;;;;;;7.10;4.60;;;;;;;21.64;82.63;100776.26;657229;1278;139538;-79
2022/08/13 03:18:07;;;;;;;6.00;4.60;;;;;;;21.37;83.76;100775.90;657430;1279;139191;-80
2022/08/13 03:33:13;;;;;;;7.80;4.50;;;;;;;21.17;84.87;100779.70;657488;1279;139198;-79
2022/08/13 03:48:24;;;;;;;6.30;4.70;;;;;;;21.01;86.55;100786.27;658649;1280;139852;-80
2022/08/13 04:03:36;;;;;;;5.90;4.60;;;;;;;20.98;86.82;100792.02;658288;1279;139794;-80
2022/08/13 04:18:42;;;;;;;8.40;5.60;;;;;;;21.05;87.58;100797.29;659045;1280;139174;-79
2022/08/13 04:33:46;;;;;;;7.20;5.40;;;;;;;21.33;87.96;100791.39;657923;1279;139449;-79
2022/08/13 04:49:12;;;;;;;11.30;7.10;;;;;;;21.49;88.07;100783.17;656791;1278;139357;-79
2022/08/13 05:04:17;;;;;;;6.70;5.40;;;;;;;21.59;88.21;100780.20;657016;1277;140237;-79
2022/08/13 05:19:26;;;;;;;10.10;5.50;;;;;;;21.99;88.52;100780.19;655604;1281;140109;-79
2022/08/13 05:34:32;;;;;;;11.60;5.90;;;;;;;22.26;87.96;100782.35;657044;1278;139328;-79
2022/08/13 05:49:37;;;;;;;9.40;6.20;;;;;;;22.45;87.65;100774.83;656968;1277;140947;-80
2022/08/13 06:04:57;;;;;;;8.20;4.60;;;;;;;22.79;87.98;100774.59;658511;1277;139231;-80
2022/08/13 06:20:04;;;;;;;8.40;4.10;;;;;;;23.64;86.93;100772.52;659193;1277;139489;-82
2022/08/13 06:35:08;;;;;;;7.00;3.90;;;;;;;24.75;84.38;100772.06;657767;1277;139802;-80
2022/08/13 06:50:14;;;;;;;5.90;3.10;;;;;;;25.81;82.28;100760.15;657620;1277;139874;-82
2022/08/13 07:05:44;;;;;;;3.20;2.60;;;;;;;26.97;74.69;100758.10;658063;1277;141002;-81
2022/08/13 07:21:07;;;;;;;4.50;2.80;;;;;;;28.16;68.57;100752.40;660993;1277;139947;-81
2022/08/13 07:36:14;;;;;;;6.70;2.60;;;;;;;28.96;65.64;100778.61;657759;1277;139731;-82
2022/08/13 07:51:21;;;;;;;3.70;2.30;;;;;;;29.03;63.76;100776.66;656709;1277;138834;-81
2022/08/13 08:06:24;;;;;;;3.10;2.40;;;;;;;30.01;63.00;100768.74;657435;1277;140526;-82
2022/08/13 08:21:35;;;;;;;5.90;1.80;;;;;;;30.70;61.07;100774.20;657621;1277;138459;-81
2022/08/13 08:36:59;;;;;;;2.00;1.80;;;;;;;31.02;58.69;100767.60;657026;1277;138713;-81
2022/08/13 08:52:08;;;;;;;5.40;2.30;;;;;;;31.14;57.70;100759.92;656286;1277;138862;-81
2022/08/13 09:07:11;;;;;;;5.00;2.70;;;;;;;31.84;57.88;100754.62;656433;1277;139202;-81
2022/08/13 09:22:22;;;;;;;;;;;;;;;33.40;55.27;100740.42;656972;1277;139941;-81
2022/08/13 09:37:31;;;;;;;2.70;1.80;;;;;;;34.03;52.73;100721.42;657148;1277;1306697;-82
2022/08/13 09:52:56;;;;;;;2.40;1.80;;;;;;;34.03;50.42;100719.67;656094;1277;23922;-82
2022/08/13 10:08:20;;;;;;;4.30;2.20;;;;;;;34.60;50.39;100700.66;660033;1277;23923;-82
2022/08/13 10:23:33;;;;;;;3.90;2.30;;;;;;;35.12;49.18;100682.67;656683;1277;22555;-82
2022/08/13 10:38:44;;;;;;;4.70;2.60;;;;;;;35.51;48.95;100661.41;656807;1277;22572;-82
2022/08/13 10:54:00;;;;;;;5.10;2.40;;;;;;;35.64;47.75;100650.04;657474;1275;25699;-83
2022/08/13 11:09:07;;;;;;;2.80;2.50;;;;;;;35.47;48.55;100624.10;657613;1277;22537;-83
2022/08/13 11:24:29;;;;;;;3.30;2.60;;;;;;;36.70;47.09;100607.02;657197;1277;24348;-83
2022/08/13 11:39:40;;;;;;;4.30;2.60;;;;;;;37.49;45.83;100595.39;657899;1277;22554;-82
2022/08/13 11:55:05;;;;;;;5.30;2.50;;;;;;;37.77;44.57;100582.73;657814;1277;22564;-81
2022/08/13 12:10:19;;;;;;;4.00;2.20;;;;;;;38.57;43.62;100557.63;658125;1277;26455;-81
2022/08/13 12:25:43;;;;;;;4.50;2.50;;;;;;;38.28;43.68;100543.60;657583;1277;23502;-82
2022/08/13 12:41:05;;;;;;;2.70;2.50;;;;;;;38.17;42.51;100528.52;658892;1277;25413;-81
2022/08/13 12:56:20;;;;;;;5.50;2.90;;;;;;;37.22;42.61;100533.33;658134;1277;24392;-81
2022/08/13 13:11:31;;;;;;;6.00;2.70;;;;;;;36.87;43.54;100538.74;660032;1277;22742;-82
2022/08/13 13:26:54;;;;;;;9.90;2.40;;;;;;;36.73;43.44;100535.08;658721;1277;22547;-82
2022/08/13 13:42:06;;;;;;;3.40;2.10;;;;;;;36.60;42.85;100526.14;657777;1277;23586;-82
2022/08/13 13:57:19;;;;;;;6.50;2.30;;;;;;;37.24;42.85;100520.27;657330;1277;22707;-81
2022/08/13 14:12:28;;;;;;;17.70;8.70;;;;;;;38.56;42.04;100512.55;657355;1277;23560;-81
2022/08/13 14:27:54;;;;;;;13.10;4.40;;;;;;;40.75;40.49;100505.23;659157;1277;31066;-82
2022/08/13 14:43:00;;;;;;;5.60;3.50;;;;;;;45.70;37.03;100486.19;664629;1276;23845;-82
2022/08/13 14:58:28;;;;;;;7.40;4.20;;;;;;;45.71;35.64;100473.89;661018;1277;31495;-82
2022/08/13 15:13:40;;;;;;;10.10;6.80;;;;;;;41.46;38.22;100461.14;658258;1277;26477;-81
2022/08/13 15:28:59;;;;;;;6.30;3.70;;;;;;;39.29;40.01;100441.55;658233;1277;25283;-80
2022/08/13 15:44:05;;;;;;;8.00;5.10;;;;;;;37.54;41.88;100423.54;658556;1277;24351;-80
2022/08/13 15:59:08;;;;;;;5.20;2.40;;;;;;;36.25;43.41;100421.14;658175;1277;24221;-80
2022/08/13 16:14:19;;;;;;;7.30;3.50;;;;;;;35.22;44.83;100409.20;657721;1277;26551;-80
2022/08/13 16:29:33;;;;;;;16.20;4.40;;;;;;;34.73;45.43;100396.05;663300;1277;24753;-81
2022/08/13 16:44:40;;;;;;;5.20;3.90;;;;;;;34.22;46.00;100394.47;657067;1277;22767;-79
2022/08/13 16:59:43;;;;;;;8.10;3.40;;;;;;;33.73;46.39;100395.12;657110;1279;24464;-81
2022/08/13 17:14:47;;;;;;;5.50;3.10;;;;;;;32.78;47.44;100393.27;657689;1277;24456;-81
2022/08/13 17:29:50;;;;;;;12.40;5.60;;;;;;;32.20;48.17;100393.40;655887;1277;24419;-81
2022/08/13 17:45:10;;;;;;;9.00;4.00;;;;;;;31.79;49.37;100389.70;658173;1277;25269;-82
2022/08/13 18:00:32;;;;;;;11.90;3.70;;;;;;;30.92;51.38;100398.16;657836;1277;22639;-82
2022/08/13 18:15:39;;;;;;;6.70;3.60;;;;;;;30.15;53.61;100416.02;659324;1277;26570;-81
2022/08/13 18:31:03;;;;;;;9.30;3.20;;;;;;;29.52;55.66;100437.70;657296;1277;22944;-82
2022/08/13 18:46:08;;;;;;;5.00;3.00;;;;;;;28.97;57.09;100449.52;656701;1277;24355;-80
2022/08/13 19:01:13;;;;;;;8.60;3.70;;;;;;;28.45;58.45;100458.03;657852;1277;23488;-80
2022/08/13 19:16:18;;;;;;;10.60;4.20;;;;;;;28.01;59.38;100467.39;656604;1277;24454;-81
2022/08/13 19:31:21;;;;;;;8.90;3.90;;;;;;;27.86;59.45;100462.67;657633;1277;24292;-81
2022/08/13 19:46:26;;;;;;;8.60;3.00;;;;;;;27.43;60.37;100472.58;656938;1277;24340;-82
2022/08/13 20:01:40;;;;;;;8.40;3.40;;;;;;;27.22;60.36;100466.54;661109;1277;22622;-81
2022/08/13 20:16:46;;;;;;;4.80;3.40;;;;;;;26.77;61.11;100458.16;658251;1277;23920;-82
2022/08/13 20:31:52;;;;;;;9.70;2.90;;;;;;;26.45;61.99;100458.29;657039;1277;24085;-82
2022/08/13 20:46:56;;;;;;;7.30;3.40;;;;;;;26.04;63.16;100452.82;657548;1277;23053;-81
2022/08/13 21:02:01;;;;;;;8.60;5.00;;;;;;;25.71;63.81;100440.17;657852;1280;25269;-80
2022/08/13 21:17:06;;;;;;;11.50;5.20;;;;;;;25.28;64.72;100440.38;657868;1277;23176;-80
2022/08/13 21:32:12;;;;;;;10.70;5.70;;;;;;;24.94;65.72;100430.27;657100;1277;23615;-80
2022/08/13 21:47:22;;;;;;;9.20;5.60;;;;;;;24.50;66.80;100424.68;655471;1277;1595189;-81
2022/08/13 22:02:29;;;;;;;12.60;6.00;;;;;;;24.11;68.11;100419.94;656442;1277;22559;-81
2022/08/13 22:17:37;;;;;;;10.80;6.50;;;;;;;23.81;70.49;100416.11;656363;1277;22540;-81
2022/08/13 22:32:41;;;;;;;11.80;6.60;;;;;;;23.51;71.81;100415.99;656184;1277;22570;-81
2022/08/13 22:47:46;;;;;;;17.90;6.60;;;;;;;23.33;71.65;100411.25;656927;1277;25337;-80
2022/08/13 23:02:49;;;;;;;7.50;4.60;;;;;;;23.09;71.90;100402.96;656404;1277;23471;-80
2022/08/13 23:17:53;;;;;;;8.50;4.40;;;;;;;22.80;72.28;100404.63;656257;1277;24387;-80
2022/08/13 23:33:12;;;;;;;11.10;5.00;;;;;;;22.48;73.56;100392.55;656464;1277;24318;-80
2022/08/13 23:48:15;;;;;;;6.20;4.90;;;;;;;22.16;74.72;100386.07;656217;1277;25506;-79
